Time;durP1;ratioP1;P1;durP2;ratioP2;P2;SDS_P1;SDS_P2;PMS_P1;PMS_P2;Temp;Humidity;BMP_temperature;BMP_pressure;BME280_temperature;BME280_humidity;BME280_pressure;Samples;Min_cycle;Max_cycle;Signal;HPM_P1;HPM_P2
2021/12/29 00:00:47;;;;;;;10.30;4.78;;;;;;;4.21;80.15;96206.41;12810998;23;20024;-83
2021/12/29 00:06:08;;;;;;;10.43;5.28;;;;;;;4.26;80.30;96203.34;12840583;23;20044;-83
2021/12/29 00:11:30;;;;;;;8.43;4.85;;;;;;;4.34;79.77;96197.59;12834495;23;20016;-82
2021/12/29 00:16:52;;;;;;;9.85;4.82;;;;;;;4.36;79.90;96189.47;12834490;23;20091;-83
2021/12/29 00:22:21;;;;;;;9.27;4.30;;;;;;;4.16;79.85;96183.34;12856578;23;20024;-83
2021/12/29 00:27:42;;;;;;;7.15;3.97;;;;;;;4.10;79.82;96196.72;12830504;23;20024;-82
2021/12/29 00:33:03;;;;;;;8.68;4.05;;;;;;;4.06;79.70;96185.41;12852418;23;20020;-83
2021/12/29 00:38:45;;;;;;;10.10;3.95;;;;;;;4.03;79.94;96181.06;12860148;23;20012;-82
2021/12/29 00:44:26;;;;;;;7.50;3.72;;;;;;;4.16;80.02;96194.38;12862081;23;20019;-82
2021/12/29 00:50:05;;;;;;;10.32;4.18;;;;;;;4.27;80.31;96190.97;12833877;23;20501;-82
2021/12/29 00:55:27;;;;;;;6.17;3.43;;;;;;;4.35;79.67;96187.31;12851385;23;20032;-83
2021/12/29 01:00:48;;;;;;;8.95;4.60;;;;;;;4.36;79.77;96197.75;12850308;23;20023;-83
2021/12/29 01:06:10;;;;;;;10.43;5.53;;;;;;;4.27;79.85;96204.78;12829358;23;20142;-82
2021/12/29 01:11:30;;;;;;;11.57;5.60;;;;;;;4.27;80.10;96209.59;12829314;23;20025;-82
2021/12/29 01:16:51;;;;;;;10.82;5.13;;;;;;;4.26;80.16;96222.69;12847999;23;20043;-82
2021/12/29 01:22:13;;;;;;;10.85;5.35;;;;;;;4.19;79.25;96215.28;12828257;23;20020;-82
2021/12/29 01:27:34;;;;;;;11.07;6.18;;;;;;;4.19;79.69;96229.09;12827931;23;20028;-82
2021/12/29 01:32:55;;;;;;;11.50;6.13;;;;;;;4.20;79.31;96233.31;12846868;23;20092;-82
2021/12/29 01:38:17;;;;;;;9.57;5.68;;;;;;;4.21;79.70;96229.22;12826618;23;20012;-83
2021/12/29 01:43:38;;;;;;;10.93;6.55;;;;;;;4.23;79.15;96232.13;12827284;23;20382;-82
2021/12/29 01:49:00;;;;;;;13.30;6.15;;;;;;;4.25;79.66;96232.28;12826040;23;20378;-82
2021/12/29 01:54:23;;;;;;;14.32;6.78;;;;;;;4.25;79.24;96240.56;12825270;23;20017;-82
2021/12/29 01:59:45;;;;;;;12.32;6.63;;;;;;;4.26;79.75;96236.47;12846881;23;20016;-82
2021/12/29 02:05:10;;;;;;;13.77;6.75;;;;;;;4.28;79.37;96239.38;12824646;23;20020;-82
2021/12/29 02:10:36;;;;;;;13.85;6.75;;;;;;;4.26;79.47;96230.97;12845382;23;20016;-82
2021/12/29 02:15:57;;;;;;;11.63;6.75;;;;;;;4.26;79.64;96239.25;12826367;23;20082;-82
2021/12/29 02:21:21;;;;;;;14.05;6.18;;;;;;;4.26;79.74;96242.00;12804959;23;20025;-82
2021/12/29 02:26:43;;;;;;;12.38;6.65;;;;;;;4.24;79.70;96249.41;12846348;23;20022;-82
2021/12/29 02:32:04;;;;;;;12.98;6.82;;;;;;;4.20;79.64;96260.94;12845086;23;20084;-82
2021/12/29 02:37:26;;;;;;;11.35;5.95;;;;;;;4.20;79.79;96262.97;12823326;23;20047;-82
2021/12/29 02:42:47;;;;;;;13.50;7.00;;;;;;;4.21;80.11;96259.59;12823247;23;20020;-82
2021/12/29 02:48:08;;;;;;;11.18;6.28;;;;;;;4.28;80.01;96267.00;12843402;23;20017;-82
2021/12/29 02:53:30;;;;;;;14.30;6.15;;;;;;;4.32;79.44;96261.00;12802610;23;20012;-83
2021/12/29 02:58:51;;;;;;;12.35;7.00;;;;;;;4.32;79.67;96267.25;12843804;23;20079;-82
2021/12/29 03:04:13;;;;;;;14.15;5.95;;;;;;;4.33;79.84;96279.03;12823250;23;20020;-82
2021/12/29 03:09:34;;;;;;;14.10;6.95;;;;;;;4.35;80.02;96264.66;12823759;23;20017;-82
2021/12/29 03:14:58;;;;;;;12.45;6.65;;;;;;;4.36;79.89;96266.09;12843949;23;20091;-82
2021/12/29 03:20:19;;;;;;;12.80;6.63;;;;;;;4.32;79.85;96272.78;12844484;23;20017;-82
2021/12/29 03:25:41;;;;;;;16.33;7.25;;;;;;;4.36;79.83;96272.34;12822618;23;20088;-82
2021/12/29 03:31:04;;;;;;;17.38;6.78;;;;;;;4.36;80.00;96263.34;12802959;23;20017;-82
2021/12/29 03:36:25;;;;;;;13.55;6.30;;;;;;;4.34;80.00;96272.19;12803203;23;20021;-82
2021/12/29 03:41:47;;;;;;;13.70;6.05;;;;;;;4.36;79.81;96279.91;12830040;23;20017;-80
2021/12/29 03:47:08;;;;;;;15.10;6.97;;;;;;;4.39;79.80;96284.25;12821391;23;20024;-82
2021/12/29 03:52:29;;;;;;;15.80;6.93;;;;;;;4.41;79.87;96295.44;12821427;23;20017;-82
2021/12/29 03:57:51;;;;;;;13.05;6.43;;;;;;;4.44;79.62;96302.53;12819669;23;20013;-82
2021/12/29 04:03:12;;;;;;;11.00;6.20;;;;;;;4.43;79.85;96309.38;12822707;23;20503;-82
2021/12/29 04:08:36;;;;;;;12.70;6.70;;;;;;;4.43;79.58;96323.19;12805447;23;20501;-82
2021/12/29 04:13:57;;;;;;;14.90;7.03;;;;;;;4.40;79.49;96327.88;12804474;23;20017;-82
2021/12/29 04:19:29;;;;;;;11.88;5.63;;;;;;;4.41;79.68;96336.88;12844689;23;20012;-82
2021/12/29 04:24:50;;;;;;;14.57;6.13;;;;;;;4.38;79.67;96343.59;12824584;23;20017;-82
2021/12/29 04:30:11;;;;;;;12.80;6.13;;;;;;;4.31;79.77;96343.16;12844798;23;20339;-82
2021/12/29 04:35:32;;;;;;;12.80;6.35;;;;;;;4.29;79.81;96354.09;12846252;23;20016;-82
2021/12/29 04:40:55;;;;;;;12.93;6.15;;;;;;;4.29;79.89;96354.09;12824043;23;20027;-82
2021/12/29 04:46:19;;;;;;;12.60;6.25;;;;;;;4.31;79.99;96370.78;12825075;23;20024;-82
2021/12/29 04:51:54;;;;;;;8.50;4.40;;;;;;;4.36;79.63;96379.38;12824471;23;20436;-82
2021/12/29 04:57:16;;;;;;;7.85;3.15;;;;;;;4.44;79.70;96397.25;12805428;23;20028;-82
2021/12/29 05:02:37;;;;;;;6.05;2.33;;;;;;;4.55;79.98;96399.38;12825114;23;20028;-82
2021/12/29 05:13:40;;;;;;;5.72;2.75;;;;;;;4.65;79.63;96409.69;12828334;23;20461;-82
2021/12/29 05:19:01;;;;;;;6.72;3.25;;;;;;;4.62;79.44;96419.13;12823951;23;20020;-81
2021/12/29 05:24:22;;;;;;;6.18;2.70;;;;;;;4.62;79.63;96422.63;12803454;23;20048;-81
2021/12/29 05:29:44;;;;;;;4.35;2.50;;;;;;;4.67;79.40;96434.69;12803405;23;20016;-81
2021/12/29 05:35:06;;;;;;;3.95;2.15;;;;;;;4.66;79.52;96458.13;12803088;23;20028;-81
2021/12/29 05:40:27;;;;;;;3.17;1.83;;;;;;;4.64;79.57;96461.47;12823198;23;20055;-82
2021/12/29 05:45:49;;;;;;;15.52;4.25;;;;;;;4.60;79.71;96461.19;12822435;23;20043;-81
2021/12/29 05:51:12;;;;;;;7.45;3.60;;;;;;;4.57;79.66;96465.84;12821505;23;20096;-81
2021/12/29 05:56:37;;;;;;;10.32;6.85;;;;;;;4.50;79.22;96469.50;12821303;23;20067;-82
2021/12/29 06:01:58;;;;;;;14.48;10.02;;;;;;;4.32;79.01;96482.75;12825854;23;20041;-83
2021/12/29 06:07:20;;;;;;;19.10;13.07;;;;;;;3.94;78.62;96488.28;12825404;23;20036;-82
2021/12/29 06:12:41;;;;;;;23.98;14.52;;;;;;;3.54;78.82;96497.81;12847405;23;20119;-83
2021/12/29 06:18:03;;;;;;;43.35;32.75;;;;;;;3.42;78.70;96505.19;12829624;23;20022;-83
2021/12/29 06:23:24;;;;;;;31.60;23.35;;;;;;;3.41;78.99;96517.53;12846554;23;20071;-83
2021/12/29 06:28:46;;;;;;;35.20;25.73;;;;;;;3.47;78.58;96529.00;12863154;23;20028;-82
2021/12/29 06:34:07;;;;;;;66.95;51.83;;;;;;;3.51;79.49;96543.13;12817805;23;20095;-82
2021/12/29 06:39:29;;;;;;;27.20;18.42;;;;;;;3.58;78.98;96533.28;12815918;23;20027;-82
2021/12/29 06:44:51;;;;;;;30.00;18.67;;;;;;;3.59;78.67;96563.03;12837658;23;20091;-82
2021/12/29 06:50:12;;;;;;;26.38;17.48;;;;;;;3.48;78.97;96554.59;12829023;23;20017;-81
2021/12/29 06:55:33;;;;;;;28.27;17.48;;;;;;;3.53;78.51;96581.16;12863769;23;20016;-81
2021/12/29 07:00:54;;;;;;;24.35;16.70;;;;;;;3.50;78.66;96587.84;12801971;23;20023;-81
2021/12/29 07:06:16;;;;;;;26.38;16.50;;;;;;;3.43;78.05;96608.72;12826821;23;20020;-81
2021/12/29 07:11:37;;;;;;;24.40;16.60;;;;;;;3.40;78.72;96605.09;12801640;23;20040;-81
2021/12/29 07:16:58;;;;;;;23.98;15.48;;;;;;;3.42;78.50;96612.78;12801600;23;20450;-81
2021/12/29 07:22:20;;;;;;;26.55;16.15;;;;;;;3.46;78.96;96624.13;12800914;23;20040;-81
2021/12/29 07:27:41;;;;;;;27.30;16.27;;;;;;;3.53;78.58;96645.34;12842705;23;20092;-81
2021/12/29 07:33:03;;;;;;;22.63;14.98;;;;;;;3.61;78.66;96640.47;12777738;23;20099;-80
2021/12/29 07:38:24;;;;;;;24.95;15.65;;;;;;;3.68;78.76;96652.69;12824418;23;20016;-79
2021/12/29 07:43:46;;;;;;;24.45;15.50;;;;;;;3.74;78.30;96658.66;12822633;23;20022;-80
2021/12/29 07:49:08;;;;;;;23.77;16.25;;;;;;;3.79;78.56;96668.00;12823913;23;20027;-80
2021/12/29 07:54:29;;;;;;;27.00;16.77;;;;;;;3.82;77.81;96672.34;12802089;23;20027;-80
2021/12/29 07:59:51;;;;;;;23.25;15.52;;;;;;;3.82;78.36;96666.84;12822393;23;20020;-80
2021/12/29 08:05:12;;;;;;;23.88;16.58;;;;;;;3.95;78.18;96677.47;12810894;23;20016;-80
2021/12/29 08:10:39;;;;;;;25.48;16.27;;;;;;;4.31;77.82;96687.78;12806086;23;20062;-80
2021/12/29 08:16:00;;;;;;;23.63;16.33;;;;;;;4.48;77.57;96695.22;12802221;23;20067;-80
2021/12/29 08:21:21;;;;;;;27.70;17.40;;;;;;;4.46;76.70;96697.84;12842538;23;20135;-80
2021/12/29 08:26:42;;;;;;;27.40;17.52;;;;;;;4.34;76.69;96694.88;12843019;23;20044;-80
2021/12/29 08:32:05;;;;;;;26.25;16.80;;;;;;;4.45;77.12;96693.63;12803007;23;20016;-80
2021/12/29 08:37:26;;;;;;;24.15;16.20;;;;;;;4.62;77.62;96706.59;12821427;23;20459;-80
2021/12/29 08:42:49;;;;;;;26.80;16.95;;;;;;;4.76;77.36;96707.63;12784092;23;20021;-80
2021/12/29 08:48:12;;;;;;;24.33;15.13;;;;;;;4.92;76.73;96708.06;12843161;23;20027;-80
2021/12/29 08:53:35;;;;;;;26.50;15.95;;;;;;;5.26;76.83;96731.94;12821037;23;20070;-80
2021/12/29 08:58:57;;;;;;;26.92;17.80;;;;;;;5.18;75.98;96721.75;12821636;23;20017;-79
2021/12/29 09:04:26;;;;;;;26.85;17.10;;;;;;;5.47;76.12;96735.56;12801712;23;20024;-79
2021/12/29 09:10:20;;;;;;;24.55;16.27;;;;;;;6.48;74.73;96751.47;12821606;23;20435;-81
2021/12/29 09:15:49;;;;;;;26.25;16.85;;;;;;;6.48;74.77;96752.19;12846529;23;20013;-82
2021/12/29 09:21:14;;;;;;;26.40;17.45;;;;;;;6.45;74.43;96753.34;12823915;23;20017;-79
2021/12/29 09:27:10;;;;;;;28.98;17.70;;;;;;;6.35;74.78;96749.19;12819988;23;20024;-80
2021/12/29 09:32:31;;;;;;;23.88;16.52;;;;;;;6.21;74.90;96757.28;12822772;23;20020;-81
2021/12/29 09:37:55;;;;;;;24.92;16.70;;;;;;;6.33;75.26;96763.63;12800343;23;20016;-80
2021/12/29 09:43:45;;;;;;;25.25;16.67;;;;;;;6.28;74.78;96757.09;12782310;23;20052;-79
2021/12/29 09:50:07;;;;;;;26.48;17.52;;;;;;;6.28;74.88;96761.91;12817757;23;20095;-80
2021/12/29 09:56:04;;;;;;;24.58;16.45;;;;;;;6.25;74.98;96760.31;12833246;23;20347;-80
2021/12/29 10:02:31;;;;;;;25.40;17.27;;;;;;;6.34;74.58;96769.91;12802221;23;20331;-80
2021/12/29 10:08:57;;;;;;;16.17;8.75;;;;;;;6.50;75.16;96776.56;12860929;23;20045;-80
2021/12/29 10:14:18;;;;;;;16.58;11.27;;;;;;;6.99;75.47;96774.97;12861100;23;20032;-79
2021/12/29 10:20:48;;;;;;;11.38;8.40;;;;;;;7.05;75.01;96775.38;12818820;23;20023;-79
2021/12/29 10:26:30;;;;;;;5.05;3.35;;;;;;;7.11;74.79;96775.75;12861750;23;20016;-80
2021/12/29 10:31:59;;;;;;;3.58;2.10;;;;;;;7.09;74.86;96783.94;12819061;23;20012;-79
2021/12/29 10:37:23;;;;;;;3.08;1.38;;;;;;;7.07;74.98;96783.81;12838835;23;20017;-79
2021/12/29 10:42:53;;;;;;;2.33;1.33;;;;;;;7.02;74.98;96784.84;12818722;23;20017;-79
2021/12/29 10:48:24;;;;;;;2.75;1.50;;;;;;;7.10;75.21;96781.91;12818594;23;20042;-80
2021/12/29 10:53:46;;;;;;;2.70;1.40;;;;;;;7.10;75.46;96793.00;12818527;23;20023;-80
2021/12/29 10:59:18;;;;;;;3.50;1.30;;;;;;;7.01;75.25;96802.84;12797211;23;20025;-80
2021/12/29 11:12:43;;;;;;;9.15;3.58;;;;;;;7.04;75.38;96807.19;12867512;23;20016;-80
2021/12/29 11:18:29;;;;;;;7.72;3.60;;;;;;;7.09;75.50;96817.25;12867870;23;20436;-81
2021/12/29 11:24:27;;;;;;;6.03;3.35;;;;;;;7.08;75.62;96810.25;12725122;23;20049;-82
2021/12/29 11:30:16;;;;;;;6.53;4.53;;;;;;;7.08;75.56;96799.16;12722828;23;20129;-81
2021/12/29 11:52:08;;;;;;;7.38;3.50;;;;;;;7.49;74.96;96812.16;12707516;23;20025;-79
2021/12/29 12:06:24;;;;;;;6.97;4.00;;;;;;;7.68;75.12;96831.44;12742259;23;20088;-80
2021/12/29 12:21:32;;;;;;;6.15;2.83;;;;;;;7.96;74.47;96835.28;12764202;23;20013;-77
2021/12/29 12:33:48;;;;;;;2.58;1.58;;;;;;;7.65;75.17;96852.81;12886532;23;19916;-81
2021/12/29 12:39:38;;;;;;;4.22;1.90;;;;;;;7.72;75.37;96865.75;12836192;23;20048;-78
2021/12/29 12:45:04;;;;;;;3.38;1.92;;;;;;;7.81;75.11;96874.59;12885834;23;20017;-78
2021/12/29 12:50:25;;;;;;;3.72;2.50;;;;;;;7.81;75.55;96877.38;12863170;23;20343;-77
2021/12/29 12:55:49;;;;;;;3.40;2.15;;;;;;;7.97;75.20;96872.84;12822141;23;20021;-78
2021/12/29 13:01:25;;;;;;;4.35;2.25;;;;;;;7.99;75.07;96873.69;12845372;23;20013;-77
2021/12/29 13:06:50;;;;;;;3.75;2.40;;;;;;;7.96;74.96;96876.97;12865904;23;20479;-77
2021/12/29 13:12:11;;;;;;;4.20;2.45;;;;;;;7.90;74.94;96888.41;12863189;23;20016;-77
2021/12/29 13:17:33;;;;;;;4.63;2.30;;;;;;;7.82;75.45;96892.75;12862289;23;20021;-76
2021/12/29 13:22:57;;;;;;;4.18;2.00;;;;;;;7.80;75.35;96900.91;12844630;23;20012;-77
2021/12/29 13:28:27;;;;;;;3.85;2.30;;;;;;;7.72;75.57;96904.66;12847724;23;20317;-79
2021/12/29 13:34:16;;;;;;;3.17;1.85;;;;;;;7.67;75.81;96894.59;12823810;23;20033;-78
2021/12/29 13:39:37;;;;;;;3.22;1.73;;;;;;;7.67;76.40;96905.69;12845478;23;20012;-76
2021/12/29 13:44:59;;;;;;;2.60;1.50;;;;;;;7.65;76.21;96916.69;12858537;23;20007;-83
2021/12/29 13:50:20;;;;;;;2.17;1.35;;;;;;;7.61;76.43;96926.78;12806600;23;20016;-79
2021/12/29 13:56:25;;;;;;;3.63;1.70;;;;;;;7.56;76.66;96933.41;12843723;23;20020;-79
2021/12/29 14:01:51;;;;;;;2.80;1.70;;;;;;;7.53;76.94;96948.47;12847083;23;20021;-77
2021/12/29 14:07:16;;;;;;;2.50;1.65;;;;;;;7.50;77.33;96958.00;12842767;23;20428;-77
2021/12/29 14:12:40;;;;;;;3.55;1.90;;;;;;;7.46;77.17;96969.56;12844885;23;20013;-77
2021/12/29 14:26:09;;;;;;;4.97;2.50;;;;;;;7.42;77.59;97008.16;12864143;23;20021;-77
2021/12/29 14:31:59;;;;;;;5.88;2.92;;;;;;;7.41;77.30;97021.31;12852272;23;20439;-78
2021/12/29 14:37:23;;;;;;;4.18;2.20;;;;;;;7.41;77.49;97045.56;12827446;23;20016;-78
2021/12/29 14:42:44;;;;;;;4.80;2.05;;;;;;;7.37;77.31;97048.09;12864835;23;20012;-76
2021/12/29 14:48:06;;;;;;;3.75;2.13;;;;;;;7.32;77.67;97038.00;12846159;23;20068;-78
2021/12/29 14:53:29;;;;;;;3.63;1.80;;;;;;;7.29;77.68;97041.97;12820863;23;20025;-77
2021/12/29 14:58:51;;;;;;;3.42;2.33;;;;;;;7.26;78.05;97048.72;12842064;23;20439;-77
2021/12/29 15:04:14;;;;;;;4.35;2.40;;;;;;;7.27;78.13;97047.41;12820155;23;20022;-77
2021/12/29 15:09:38;;;;;;;4.13;2.20;;;;;;;7.21;78.25;97066.41;12849728;23;19997;-80
2021/12/29 15:15:13;;;;;;;3.55;2.03;;;;;;;7.21;77.95;97071.94;12850860;23;20010;-79
2021/12/29 15:20:36;;;;;;;5.43;2.50;;;;;;;7.20;77.97;97078.81;12854289;23;20040;-79
2021/12/29 15:26:26;;;;;;;4.18;2.80;;;;;;;7.20;78.26;97092.69;12840225;23;20089;-82
2021/12/29 15:31:50;;;;;;;7.22;2.92;;;;;;;7.16;78.50;97085.56;12855083;23;20019;-81
2021/12/29 15:37:12;;;;;;;4.07;2.40;;;;;;;7.15;78.55;97109.09;12850402;23;20458;-81
2021/12/29 15:42:33;;;;;;;8.20;3.80;;;;;;;7.12;78.38;97098.41;12841191;23;20025;-78
2021/12/29 15:48:23;;;;;;;3.70;2.05;;;;;;;7.12;78.24;97099.13;12839511;23;20092;-77
2021/12/29 15:53:45;;;;;;;4.22;1.90;;;;;;;7.09;78.24;97108.63;12841702;23;20039;-77
2021/12/29 15:59:35;;;;;;;3.70;1.42;;;;;;;7.02;78.43;97111.56;12863206;23;20500;-79
2021/12/29 16:04:57;;;;;;;4.38;1.60;;;;;;;6.96;78.37;97113.94;12864902;23;20436;-77
2021/12/29 16:10:19;;;;;;;2.80;1.65;;;;;;;6.93;78.49;97121.34;12866808;23;20379;-77
2021/12/29 16:15:40;;;;;;;2.80;1.83;;;;;;;6.95;78.41;97127.06;12844894;23;20040;-77
2021/12/29 16:21:01;;;;;;;2.97;2.15;;;;;;;6.96;78.30;97122.25;12864226;23;20032;-78
2021/12/29 16:26:22;;;;;;;3.75;2.35;;;;;;;7.00;78.31;97128.81;12844623;23;20029;-78
2021/12/29 16:31:43;;;;;;;5.40;2.20;;;;;;;6.99;78.22;97129.41;12843391;23;20012;-78
2021/12/29 16:37:04;;;;;;;2.42;1.38;;;;;;;7.00;78.35;97134.34;12801647;23;20067;-78
2021/12/29 16:42:27;;;;;;;2.95;1.70;;;;;;;7.01;78.01;97149.69;12824873;23;20020;-77
2021/12/29 16:47:49;;;;;;;3.40;1.60;;;;;;;7.01;78.34;97144.13;12843585;23;20420;-78
2021/12/29 16:53:10;;;;;;;2.58;1.40;;;;;;;7.05;78.24;97147.22;12886052;23;20362;-78
2021/12/29 16:58:36;;;;;;;1.42;1.05;;;;;;;7.06;78.19;97147.94;12824176;23;20013;-79
2021/12/29 17:03:57;;;;;;;2.28;1.05;;;;;;;7.09;78.22;97141.22;12873943;23;20047;-81
2021/12/29 17:09:18;;;;;;;1.80;1.10;;;;;;;7.10;78.27;97157.28;12899540;23;20004;-81
2021/12/29 17:14:40;;;;;;;2.15;1.40;;;;;;;7.10;78.39;97157.28;12897510;23;20005;-80
2021/12/29 17:20:03;;;;;;;3.45;1.70;;;;;;;7.08;77.96;97173.78;12849802;23;20004;-82
2021/12/29 17:25:24;;;;;;;3.15;1.80;;;;;;;7.07;78.08;97163.28;12764896;23;20074;-81
2021/12/29 17:30:46;;;;;;;4.38;2.08;;;;;;;7.03;78.05;97166.47;12766340;23;20096;-80
2021/12/29 17:48:40;;;;;;;3.35;1.67;;;;;;;7.04;77.85;97173.50;12690756;23;20032;-84
2021/12/29 18:00:32;;;;;;;6.70;2.13;;;;;;;7.02;77.81;97167.06;12841797;23;20475;-79
2021/12/29 18:05:55;;;;;;;4.43;2.15;;;;;;;7.00;78.00;97159.34;12819715;23;20005;-79
2021/12/29 18:11:19;;;;;;;2.90;1.80;;;;;;;6.97;77.96;97149.41;12783393;23;20017;-77
2021/12/29 18:16:39;;;;;;;5.07;2.13;;;;;;;6.96;78.17;97147.22;12738871;23;20021;-77
2021/12/29 18:22:00;;;;;;;3.25;2.25;;;;;;;6.96;78.13;97141.69;12736250;23;20017;-77
2021/12/29 18:27:21;;;;;;;4.63;2.40;;;;;;;6.99;77.93;97146.03;12778212;23;20314;-74
2021/12/29 18:32:42;;;;;;;3.22;1.83;;;;;;;7.00;77.55;97164.88;12776414;23;20013;-78
2021/12/29 18:38:03;;;;;;;4.05;1.95;;;;;;;7.04;77.51;97165.16;12798619;23;20021;-78
2021/12/29 18:43:25;;;;;;;3.20;1.63;;;;;;;7.06;77.35;97173.66;12764678;23;20052;-77
2021/12/29 18:48:46;;;;;;;3.63;1.90;;;;;;;7.06;77.27;97173.66;12738620;23;20017;-76
2021/12/29 18:54:08;;;;;;;2.78;1.80;;;;;;;7.04;77.38;97181.81;12806443;23;20005;-81
2021/12/29 18:59:30;;;;;;;3.28;1.75;;;;;;;7.05;77.25;97180.53;12749305;23;20025;-77
2021/12/29 19:04:51;;;;;;;4.00;1.73;;;;;;;7.04;77.05;97184.59;12758725;23;20096;-77
2021/12/29 19:10:15;;;;;;;4.80;2.40;;;;;;;7.00;77.12;97175.25;12766425;23;20041;-80
2021/12/29 19:15:37;;;;;;;4.75;2.38;;;;;;;7.00;77.21;97181.53;12786750;22;20027;-81
2021/12/29 19:21:00;;;;;;;4.78;2.97;;;;;;;7.01;77.13;97191.31;12827811;22;20027;-86
2021/12/29 19:32:37;;;;;;;;;;;;;;;6.98;76.96;97206.38;12792042;23;20221;-82
2021/12/29 20:10:12;;;;;;;6.82;4.00;;;;;;;6.96;77.17;97220.09;12385219;24;20016;-79
2021/12/29 20:15:35;;;;;;;6.95;4.28;;;;;;;6.94;77.21;97227.53;12403895;23;20016;-78
2021/12/29 20:20:56;;;;;;;5.00;3.35;;;;;;;6.96;77.33;97247.13;12443302;23;20015;-78
2021/12/29 20:26:17;;;;;;;5.43;3.45;;;;;;;6.95;77.04;97238.06;12421979;23;20023;-78
2021/12/29 20:31:41;;;;;;;4.90;3.40;;;;;;;6.96;76.78;97236.03;12421636;23;20019;-77
2021/12/29 20:37:04;;;;;;;5.35;2.80;;;;;;;6.95;77.32;97234.53;12421301;23;20487;-76
2021/12/29 20:42:29;;;;;;;5.18;3.20;;;;;;;6.92;77.21;97233.66;12441429;23;20451;-77
2021/12/29 20:47:51;;;;;;;5.55;3.15;;;;;;;6.89;77.06;97226.50;12440775;23;20019;-77
2021/12/29 20:53:15;;;;;;;4.97;3.45;;;;;;;6.88;77.07;97222.28;12439726;23;20023;-77
2021/12/29 20:58:36;;;;;;;4.85;3.10;;;;;;;6.85;77.09;97221.41;12439197;23;20026;-78
2021/12/29 21:03:59;;;;;;;5.00;3.15;;;;;;;6.80;76.99;97227.97;12450762;23;20015;-78
2021/12/29 21:09:20;;;;;;;6.13;3.30;;;;;;;6.78;77.42;97218.75;12420080;23;20020;-76
2021/12/29 21:14:42;;;;;;;5.18;2.97;;;;;;;6.72;77.63;97224.59;12451834;23;20036;-84
2021/12/29 21:20:07;;;;;;;5.18;3.03;;;;;;;6.69;77.41;97233.34;12434867;23;20463;-80
2021/12/29 21:25:29;;;;;;;4.72;3.10;;;;;;;6.67;77.50;97208.25;12414338;23;20051;-80
2021/12/29 21:31:21;;;;;;;5.63;3.15;;;;;;;6.55;77.71;97208.78;12412162;23;20028;-77
2021/12/29 21:36:51;;;;;;;5.05;2.72;;;;;;;6.48;77.83;97239.44;12422059;23;20119;-78
2021/12/29 21:42:12;;;;;;;5.35;3.50;;;;;;;6.48;77.87;97240.16;12420522;23;20087;-77
2021/12/29 21:47:35;;;;;;;4.43;3.25;;;;;;;6.48;77.71;97234.63;12439296;23;20022;-79
2021/12/29 21:52:58;;;;;;;5.32;3.53;;;;;;;6.43;77.66;97238.38;12419624;23;20023;-78
2021/12/29 21:58:20;;;;;;;4.57;3.20;;;;;;;6.49;77.76;97236.06;12421189;23;20428;-77
2021/12/29 22:03:41;;;;;;;5.05;3.10;;;;;;;6.57;77.88;97247.78;12419307;23;20071;-77
2021/12/29 22:09:02;;;;;;;5.25;3.13;;;;;;;6.65;77.82;97258.00;12396078;23;20028;-77
2021/12/29 22:14:23;;;;;;;5.65;3.50;;;;;;;6.68;77.58;97265.19;12419956;23;20090;-77
2021/12/29 22:19:51;;;;;;;6.72;3.83;;;;;;;6.73;77.41;97261.38;12439226;23;20451;-77
2021/12/29 22:25:16;;;;;;;5.55;3.30;;;;;;;6.75;77.48;97250.41;12421371;23;20447;-77
2021/12/29 22:31:05;;;;;;;5.28;3.20;;;;;;;6.71;77.45;97292.47;12413084;23;20040;-78
2021/12/29 22:36:55;;;;;;;5.22;3.45;;;;;;;6.69;77.31;97247.22;12425535;23;20028;-77
2021/12/29 22:42:45;;;;;;;5.25;3.00;;;;;;;6.64;77.53;97234.34;12426553;23;20095;-77
2021/12/29 22:48:14;;;;;;;6.10;3.28;;;;;;;6.64;77.38;97228.81;12419089;23;20023;-77
2021/12/29 22:53:35;;;;;;;4.55;2.63;;;;;;;6.66;77.42;97223.41;12421393;23;20392;-77
2021/12/29 22:58:56;;;;;;;5.70;3.45;;;;;;;6.65;77.27;97231.00;12419641;23;20419;-77
2021/12/29 23:04:17;;;;;;;6.78;4.32;;;;;;;6.64;77.07;97232.31;12401460;23;20031;-77
2021/12/29 23:09:38;;;;;;;7.88;5.10;;;;;;;6.66;77.50;97248.34;12441208;23;20047;-77
2021/12/29 23:15:31;;;;;;;6.32;4.05;;;;;;;6.68;77.11;97246.50;12430068;23;20051;-77
2021/12/29 23:20:55;;;;;;;6.45;3.45;;;;;;;6.71;77.12;97261.22;12424567;23;20012;-77
2021/12/29 23:32:26;;;;;;;7.13;3.47;;;;;;;6.80;76.85;97266.06;12446655;23;20313;-78
2021/12/29 23:37:47;;;;;;;6.07;3.13;;;;;;;6.81;77.13;97279.34;12443365;23;20051;-77
2021/12/29 23:43:13;;;;;;;6.25;3.20;;;;;;;6.89;76.85;97282.00;12423372;23;20016;-78
2021/12/29 23:49:03;;;;;;;6.97;3.42;;;;;;;6.91;76.53;97275.88;12428576;23;20106;-79
2021/12/29 23:54:24;;;;;;;7.60;3.55;;;;;;;6.93;76.46;97265.63;12424469;23;20046;-78
2021/12/29 23:59:45;;;;;;;8.20;3.72;;;;;;;6.92;76.63;97253.09;12402832;23;20043;-78
